Pocahontas, TN

1:29 PM CDT on July 31, 2014 (GMT -0500)
Turner (KCRX) Elev 427 ft | 34.91 °N, 88.60 °W | Change Station

Current weather conditions updated 14 minutes ago

Partly Cloudy
Partly Cloudy
77 °F
Feels Like 77 °F
N
4
Wind Variable Wind from NNW

Today is forecast to be nearly the same temperature as yesterday.

Today
High -- | Low -- °F
--% Chance of Precip.
Yesterday
High -- | Low -- °F
Precip. -- in
6:03 AM 7:58 PM
Waxing Crescent, 20% visible
Pressure 30.10 in
Visibility 10.0 miles
Clouds Few 9000 ft
Dew Point 63 °F
Humidity 61%
Rainfall 0.00 in
Snow Depth Not available.
UV 11 out of 12
Pollen 5.70 out of 12
Air Quality Not available.
Flu Activity Not available.
METAR KCRX 311815Z AUTO 34003KT 10SM FEW090 25/17 A3010 RMK AO2

More Conditions Fewer Conditions

Pressure 30.10 in
Visibility 10.0 miles
Clouds Few 9000 ft
Dew Point 63 °F
Humidity 61%
Rainfall 0.00 in
Snow Depth Not available.
UV 11 out of 12
Pollen 5.70 out of 12
Air Quality Not available.
Flu Activity Not available.
METAR KCRX 311815Z AUTO 34003KT 10SM FEW090 25/17 A3010 RMK AO2

More Conditions Fewer Conditions

10-Day Weather Forecast

Almanac

Astronomy

Jul. 31, 2014 Rise Set
Actual Time 6:03 AM CDT 7:58 PM CDT
Civil Twilight 5:35 AM CDT 8:26 PM CDT
Nautical Twilight 5:02 AM CDT 9:00 PM CDT
Astronomical Twilight 4:25 AM CDT 9:36 PM CDT
Moon 10:18 AM CDT 10:24 PM CDT
Length of Visible Light 14h 50m
Length of Day
13h 55m
Tomorrow will be 1m 38s shorter.
Waxing Crescent, 20% of the Moon is Illuminated
Today
Waxing Crescent
Aug 3
First Quarter
Aug 10
Full
Aug 17
Last Quarter
Aug 25
New

Today's Extremes

State Highs State Lows

Community

WunderPhotos

Upload Photos

1,739,411 photos uploaded!

Nearby

Snow Depth

Station Depth Elevation
No new snow has been reported.

Earthquake Activity

City Distance Mag. Time & Date
No recent earthquake activity has been reported nearby.
Minimum magnitude displayed is 2.5.

Coastal Water Temperatures

Place Temperature
No Stations Reporting

Nearby Weather Stations

Station Location Temp. Heat Index Dew Point Humidity Wind Precip. Elev Updated Type
City, Corinth, MS 79.2 °F 81 °F 65 °F 61% North  at  1.0 mph 0.00 in / hr 435 ft 1:29 PM CDT Normal
Corinth, MS 76.8 °F 79 °F 66 °F 69% South  at  0.0 mph 0.00 in / hr 471 ft 1:25 PM CDT Normal

Show More Stations Show Fewer Stations